Time;durP1;ratioP1;P1;durP2;ratioP2;P2;SDS_P1;SDS_P2;PMS_P1;PMS_P2;Temp;Humidity;BMP_temperature;BMP_pressure;BME280_temperature;BME280_humidity;BME280_pressure;Samples;Min_cycle;Max_cycle;Signal;HPM_P1;HPM_P2
2022/05/03 00:01:22;;;;;;;9.60;5.25;;;9.30;97.80;;;;;;5135322;27;20143;-79
2022/05/03 00:04:04;;;;;;;9.82;5.72;;;9.30;98.00;;;;;;5135658;27;20134;-79
2022/05/03 00:06:34;;;;;;;8.27;4.75;;;9.30;98.00;;;;;;5135447;27;20055;-78
2022/05/03 00:09:08;;;;;;;12.93;6.10;;;9.20;97.90;;;;;;5134629;27;20134;-79
2022/05/03 00:11:40;;;;;;;8.02;5.18;;;9.20;97.90;;;;;;5135350;27;20050;-79
2022/05/03 00:14:06;;;;;;;8.25;5.22;;;9.10;97.90;;;;;;5134960;27;20043;-79
2022/05/03 00:16:35;;;;;;;7.60;5.00;;;9.10;98.00;;;;;;5135155;27;20054;-79
2022/05/03 00:19:05;;;;;;;8.18;5.13;;;9.10;97.80;;;;;;5134965;27;20112;-79
2022/05/03 00:21:36;;;;;;;8.18;5.55;;;9.00;97.90;;;;;;5135597;27;20043;-79
2022/05/03 00:24:04;;;;;;;7.55;4.93;;;9.00;97.90;;;;;;5134903;27;20095;-78
2022/05/03 00:26:30;;;;;;;9.68;5.40;;;8.90;97.80;;;;;;5134766;27;20058;-79
2022/05/03 00:28:58;;;;;;;6.38;4.65;;;8.90;98.20;;;;;;5117752;27;20092;-79
2022/05/03 00:31:26;;;;;;;6.78;4.03;;;9.00;98.10;;;;;;5134651;27;20043;-79
2022/05/03 00:33:53;;;;;;;5.30;3.67;;;9.10;97.90;;;;;;5134373;27;20047;-79
2022/05/03 00:36:20;;;;;;;6.55;4.13;;;9.00;97.80;;;;;;5134653;27;20059;-79
2022/05/03 00:38:46;;;;;;;7.70;4.50;;;9.00;97.90;;;;;;5134803;27;20039;-79
2022/05/03 00:41:35;;;;;;;7.07;4.47;;;8.90;97.80;;;;;;5133909;27;20081;-79
2022/05/03 00:44:55;;;;;;;7.57;4.25;;;8.90;97.70;;;;;;5134802;27;20051;-79
2022/05/03 00:47:21;;;;;;;7.60;4.75;;;8.70;97.70;;;;;;5134695;27;20107;-79
2022/05/03 00:49:59;;;;;;;7.53;5.07;;;8.70;97.90;;;;;;5082637;27;20054;-79
2022/05/03 00:52:55;;;;;;;6.20;4.32;;;8.60;98.00;;;;;;5133846;27;20506;-79
2022/05/03 00:55:46;;;;;;;9.70;4.53;;;8.60;97.70;;;;;;5117376;27;20051;-79
2022/05/03 00:58:27;;;;;;;7.88;4.57;;;8.60;97.90;;;;;;5134115;27;20047;-78
2022/05/03 01:01:09;;;;;;;7.38;4.85;;;8.60;98.10;;;;;;5117091;27;20133;-79
2022/05/03 01:03:54;;;;;;;8.10;5.18;;;8.50;97.90;;;;;;5134203;27;20054;-79
2022/05/03 01:06:32;;;;;;;8.98;5.15;;;8.50;98.00;;;;;;5134020;27;20042;-79
2022/05/03 01:09:11;;;;;;;8.23;5.25;;;8.50;98.10;;;;;;5134139;27;20393;-79
2022/05/03 01:11:53;;;;;;;7.82;5.00;;;8.60;98.00;;;;;;5117490;27;20520;-79
2022/05/03 01:14:40;;;;;;;7.32;4.70;;;8.50;97.70;;;;;;5134298;27;20127;-79
2022/05/03 01:17:16;;;;;;;10.27;5.47;;;8.50;97.90;;;;;;5116678;27;20051;-80
2022/05/03 01:19:49;;;;;;;7.80;4.82;;;8.50;98.00;;;;;;5116968;27;20039;-79
2022/05/03 01:22:52;;;;;;;7.65;5.40;;;8.50;97.90;;;;;;5134452;27;20047;-79
2022/05/03 01:25:23;;;;;;;7.28;4.40;;;8.60;98.10;;;;;;5134037;27;20050;-79
2022/05/03 01:27:55;;;;;;;7.68;5.28;;;8.50;97.80;;;;;;5133683;27;20051;-79
2022/05/03 01:30:22;;;;;;;7.90;4.95;;;8.50;97.90;;;;;;5133569;27;20043;-79
2022/05/03 01:32:50;;;;;;;8.30;4.90;;;8.40;98.00;;;;;;5133921;27;20047;-79
2022/05/03 01:35:21;;;;;;;8.00;5.13;;;8.40;97.90;;;;;;5133734;27;20070;-79
2022/05/03 01:38:16;;;;;;;7.57;5.15;;;8.30;98.10;;;;;;5133863;27;20046;-79
2022/05/03 01:40:54;;;;;;;7.65;5.20;;;8.40;98.30;;;;;;5133440;27;20047;-79
2022/05/03 01:43:55;;;;;;;10.75;6.80;;;8.40;98.10;;;;;;5134221;27;20419;-79
2022/05/03 01:46:27;;;;;;;9.80;5.65;;;8.40;97.90;;;;;;5079797;27;20078;-79
2022/05/03 01:51:45;;;;;;;10.23;5.65;;;8.40;97.90;;;;;;5133283;28;20066;-79
2022/05/03 01:54:29;;;;;;;7.43;5.30;;;8.30;98.00;;;;;;5133456;27;20051;-79
2022/05/03 01:57:04;;;;;;;8.35;5.32;;;8.30;98.10;;;;;;5133276;27;20050;-79
2022/05/03 01:59:40;;;;;;;10.35;6.60;;;8.20;98.00;;;;;;5133441;28;20055;-79
2022/05/03 02:02:25;;;;;;;8.43;5.07;;;8.40;98.50;;;;;;5133797;27;20047;-79
2022/05/03 02:05:05;;;;;;;8.23;5.68;;;8.40;98.20;;;;;;5133547;27;20078;-79
2022/05/03 02:07:56;;;;;;;8.93;5.93;;;8.40;98.10;;;;;;5133363;28;20050;-79
2022/05/03 02:10:57;;;;;;;9.18;6.03;;;8.40;97.90;;;;;;5132495;28;20047;-79
2022/05/03 02:17:27;;;;;;;10.18;6.68;;;8.40;98.20;;;;;;5133465;27;20048;-79
2022/05/03 02:20:14;;;;;;;9.18;6.18;;;8.30;98.20;;;;;;5068801;28;20173;-79
2022/05/03 02:22:51;;;;;;;9.55;6.35;;;8.40;98.30;;;;;;5133343;27;20047;-78
2022/05/03 02:25:33;;;;;;;10.52;7.03;;;8.30;98.20;;;;;;5133165;27;20428;-79
2022/05/03 02:28:07;;;;;;;9.93;6.90;;;8.30;98.30;;;;;;5115882;27;20559;-79
2022/05/03 02:30:35;;;;;;;10.70;6.55;;;8.20;98.10;;;;;;5133075;28;20104;-79
2022/05/03 02:33:05;;;;;;;11.80;7.38;;;8.20;98.30;;;;;;5133128;27;20042;-79
2022/05/03 02:35:35;;;;;;;11.52;7.38;;;8.20;98.40;;;;;;5116164;28;20100;-79
2022/05/03 02:38:06;;;;;;;11.50;7.85;;;8.30;98.70;;;;;;5115761;28;20486;-79
2022/05/03 02:40:33;;;;;;;8.00;6.00;;;8.30;98.70;;;;;;5115552;28;20054;-79
2022/05/03 02:42:59;;;;;;;8.05;4.93;;;8.20;98.60;;;;;;5098922;28;20048;-79
2022/05/03 02:45:26;;;;;;;6.55;4.63;;;8.20;98.40;;;;;;5132933;27;20039;-79
2022/05/03 02:47:54;;;;;;;6.20;4.38;;;8.20;98.40;;;;;;5115827;28;20486;-79
2022/05/03 02:51:02;;;;;;;8.38;5.00;;;8.10;98.30;;;;;;5132418;27;20058;-79
2022/05/03 02:53:36;;;;;;;;;;;8.10;98.50;;;;;;5120650;27;20047;-79
2022/05/03 02:56:19;;;;;;;9.05;6.00;;;8.20;98.80;;;;;;5115769;28;20332;-79
2022/05/03 02:59:03;;;;;;;9.75;6.68;;;8.30;99.10;;;;;;5136628;27;20047;-79
2022/05/03 03:01:50;;;;;;;9.20;6.57;;;8.40;99.30;;;;;;5136628;27;20039;-79
2022/05/03 03:04:40;;;;;;;11.00;6.95;;;8.50;99.30;;;;;;5136662;27;20043;-79
2022/05/03 03:07:07;;;;;;;11.18;7.13;;;8.60;99.30;;;;;;5136274;27;20046;-79
2022/05/03 03:09:45;;;;;;;14.13;9.00;;;8.60;99.40;;;;;;5118911;27;20047;-79
2022/05/03 03:12:33;;;;;;;10.85;8.05;;;8.70;99.50;;;;;;5119409;27;20047;-79
2022/05/03 03:15:06;;;;;;;12.50;8.00;;;8.90;99.60;;;;;;5136776;27;20056;-79
2022/05/03 03:17:42;;;;;;;12.05;8.57;;;8.90;99.60;;;;;;5136346;27;20070;-79
2022/05/03 03:20:12;;;;;;;10.95;7.90;;;9.00;99.70;;;;;;5135931;27;20180;-79
2022/05/03 03:22:46;;;;;;;12.50;8.32;;;9.00;99.70;;;;;;5119532;27;20040;-79
2022/05/03 03:25:17;;;;;;;15.00;9.90;;;9.10;99.80;;;;;;5136121;27;20053;-79
2022/05/03 03:27:44;;;;;;;13.45;8.88;;;9.10;99.80;;;;;;5136196;27;20050;-79
2022/05/03 03:30:12;;;;;;;18.88;9.40;;;9.20;99.80;;;;;;5118522;27;20406;-79
2022/05/03 03:32:44;;;;;;;12.63;8.88;;;9.30;99.80;;;;;;5135957;27;20045;-79
2022/05/03 03:35:13;;;;;;;11.52;9.20;;;9.20;99.70;;;;;;5135776;27;20047;-79
2022/05/03 03:37:45;;;;;;;14.00;10.35;;;9.20;99.70;;;;;;5135795;27;20047;-79
2022/05/03 03:40:11;;;;;;;15.57;9.52;;;9.10;99.60;;;;;;5135585;27;20049;-79
2022/05/03 03:42:37;;;;;;;15.05;9.43;;;9.10;99.60;;;;;;5135964;27;20047;-79
2022/05/03 03:45:07;;;;;;;15.20;10.07;;;9.00;99.60;;;;;;5135913;27;20120;-79
2022/05/03 03:47:38;;;;;;;15.23;10.05;;;9.10;99.60;;;;;;5135562;27;20047;-79
2022/05/03 03:50:05;;;;;;;15.00;9.85;;;9.10;99.80;;;;;;5118830;27;20490;-79
2022/05/03 03:52:33;;;;;;;15.57;9.35;;;9.00;99.90;;;;;;5135599;27;20126;-79
2022/05/03 03:55:00;;;;;;;13.43;9.98;;;9.10;99.90;;;;;;5135621;27;20540;-79
2022/05/03 03:57:26;;;;;;;15.77;10.40;;;9.30;99.90;;;;;;5135440;27;20079;-79
2022/05/03 03:59:52;;;;;;;14.73;11.15;;;9.40;99.90;;;;;;5135149;27;20050;-79
2022/05/03 04:02:19;;;;;;;16.30;10.38;;;9.40;99.90;;;;;;5135596;27;20050;-79
2022/05/03 04:04:48;;;;;;;15.32;10.93;;;9.50;99.90;;;;;;5135269;27;20058;-79
2022/05/03 04:07:13;;;;;;;18.00;10.65;;;9.60;99.90;;;;;;5135367;27;20549;-79
2022/05/03 04:09:39;;;;;;;15.27;11.38;;;9.70;99.90;;;;;;5134331;27;20035;-79
2022/05/03 04:12:05;;;;;;;22.10;14.10;;;9.80;99.90;;;;;;5135378;27;20047;-79
2022/05/03 04:14:31;;;;;;;20.65;13.20;;;9.80;99.90;;;;;;5117854;27;20127;-79
2022/05/03 04:16:58;;;;;;;18.70;12.07;;;9.80;99.90;;;;;;5118148;27;20078;-79
2022/05/03 04:19:24;;;;;;;22.60;13.00;;;9.90;99.90;;;;;;5135533;27;20411;-79
2022/05/03 04:21:50;;;;;;;21.27;13.23;;;9.90;99.90;;;;;;5100831;27;20047;-79
2022/05/03 04:24:17;;;;;;;16.92;12.65;;;9.90;99.90;;;;;;5134933;27;20485;-79
2022/05/03 04:26:43;;;;;;;17.50;12.05;;;9.90;99.90;;;;;;5134736;27;20051;-79
2022/05/03 04:29:08;;;;;;;16.10;11.82;;;9.90;99.90;;;;;;5134779;27;20043;-79
2022/05/03 04:31:35;;;;;;;17.30;12.52;;;9.80;99.90;;;;;;5134788;27;20043;-79
2022/05/03 04:34:03;;;;;;;17.05;12.15;;;9.80;99.90;;;;;;5134906;27;20454;-79
2022/05/03 04:36:33;;;;;;;17.20;11.93;;;9.90;99.90;;;;;;5134744;27;20517;-79
2022/05/03 04:39:03;;;;;;;19.73;12.20;;;9.90;99.90;;;;;;5134892;27;20039;-79
2022/05/03 04:41:29;;;;;;;17.88;11.90;;;9.90;99.90;;;;;;5117131;27;20383;-79
2022/05/03 04:43:56;;;;;;;21.00;13.30;;;10.00;99.90;;;;;;5134572;27;20043;-79
2022/05/03 04:46:21;;;;;;;17.83;11.98;;;10.00;99.90;;;;;;5134703;27;20047;-79
2022/05/03 04:48:47;;;;;;;19.00;11.95;;;10.00;99.90;;;;;;5134274;27;20049;-79
2022/05/03 04:51:21;;;;;;;18.73;12.60;;;10.10;99.90;;;;;;5134333;27;20059;-79
2022/05/03 04:53:48;;;;;;;17.83;12.88;;;10.10;99.90;;;;;;5134580;27;20047;-79
2022/05/03 04:56:22;;;;;;;22.35;15.85;;;10.20;99.90;;;;;;5134038;27;20078;-79
2022/05/03 04:58:48;;;;;;;20.27;13.07;;;10.20;99.90;;;;;;5134708;27;20126;-79
2022/05/03 05:01:15;;;;;;;21.67;13.35;;;10.20;99.90;;;;;;5134560;27;20093;-79
2022/05/03 05:03:42;;;;;;;17.15;12.73;;;10.30;99.90;;;;;;5134215;27;20043;-79
2022/05/03 05:06:09;;;;;;;20.67;14.05;;;10.40;99.90;;;;;;5133928;27;20039;-79
2022/05/03 05:08:39;;;;;;;20.38;14.52;;;10.40;99.90;;;;;;5134225;27;20039;-79
2022/05/03 05:11:05;;;;;;;21.13;14.80;;;10.50;99.90;;;;;;5116695;27;20122;-79
2022/05/03 05:13:31;;;;;;;21.48;13.80;;;10.50;99.90;;;;;;5134004;27;20047;-79
2022/05/03 05:15:57;;;;;;;21.05;14.13;;;10.40;99.90;;;;;;5134163;27;20043;-79
2022/05/03 05:18:24;;;;;;;23.95;14.15;;;10.60;99.90;;;;;;5134027;27;20413;-79
2022/05/03 05:20:50;;;;;;;22.00;14.55;;;10.60;99.90;;;;;;5133312;27;20055;-79
2022/05/03 05:23:16;;;;;;;31.42;19.70;;;10.70;99.90;;;;;;5133627;27;20507;-79
2022/05/03 05:25:41;;;;;;;35.88;21.98;;;10.70;99.90;;;;;;5134114;27;20083;-79
2022/05/03 05:28:07;;;;;;;31.50;20.05;;;10.60;99.90;;;;;;5133789;27;20390;-79
2022/05/03 05:30:33;;;;;;;34.40;20.52;;;10.60;99.90;;;;;;5133534;27;20501;-78
2022/05/03 05:32:58;;;;;;;28.45;18.40;;;10.50;99.90;;;;;;5116804;27;20050;-79
2022/05/03 05:35:24;;;;;;;32.10;18.65;;;10.70;99.90;;;;;;5116705;27;20039;-79
2022/05/03 05:37:50;;;;;;;31.15;19.40;;;10.70;99.90;;;;;;5133797;27;20175;-78
2022/05/03 05:40:15;;;;;;;41.13;23.75;;;10.90;99.90;;;;;;5133083;27;20047;-79
2022/05/03 05:42:42;;;;;;;32.63;20.25;;;11.00;99.90;;;;;;5133846;27;20039;-78
2022/05/03 05:45:08;;;;;;;38.38;22.92;;;11.00;99.90;;;;;;5133343;27;20051;-79
2022/05/03 05:47:33;;;;;;;31.05;19.40;;;11.10;99.90;;;;;;5133748;27;20047;-79
2022/05/03 05:49:59;;;;;;;31.77;20.15;;;11.10;99.90;;;;;;5098872;27;20073;-80
2022/05/03 05:55:09;;;;;;;37.67;21.70;;;11.10;99.90;;;;;;5133583;27;20138;-79
2022/05/03 05:57:35;;;;;;;34.55;19.83;;;11.20;99.90;;;;;;5116308;28;20137;-79
2022/05/03 06:00:01;;;;;;;33.25;20.35;;;11.20;99.90;;;;;;5116615;28;20039;-79
2022/05/03 06:02:27;;;;;;;32.22;19.83;;;11.30;99.90;;;;;;5133430;28;20035;-79
2022/05/03 06:04:53;;;;;;;32.90;20.30;;;11.30;99.90;;;;;;5116200;28;20050;-79
2022/05/03 06:07:18;;;;;;;30.02;19.63;;;11.30;99.90;;;;;;5132295;27;20111;-79
2022/05/03 06:09:44;;;;;;;33.40;20.55;;;11.40;99.90;;;;;;5158063;27;20035;-79
2022/05/03 06:12:10;;;;;;;35.95;20.45;;;11.50;99.90;;;;;;5141609;27;20039;-79
2022/05/03 06:14:36;;;;;;;31.98;20.60;;;11.50;99.90;;;;;;5132949;28;20505;-79
2022/05/03 06:17:02;;;;;;;37.40;23.38;;;11.50;99.90;;;;;;5131505;28;20080;-79
2022/05/03 06:19:28;;;;;;;30.80;19.90;;;11.50;99.90;;;;;;5115336;28;20047;-79
2022/05/03 06:21:53;;;;;;;35.55;20.80;;;11.60;99.90;;;;;;5167688;27;20446;-79
2022/05/03 06:24:19;;;;;;;37.95;22.17;;;11.70;99.90;;;;;;5167936;27;20064;-77
2022/05/03 06:26:45;;;;;;;35.67;22.42;;;11.70;99.90;;;;;;5133315;27;20051;-76
2022/05/03 06:29:11;;;;;;;42.08;24.13;;;11.70;99.90;;;;;;5135930;27;20043;-79
2022/05/03 06:31:42;;;;;;;43.20;24.30;;;11.70;99.90;;;;;;5133860;27;20192;-78
2022/05/03 06:34:08;;;;;;;42.47;24.48;;;11.80;99.90;;;;;;5137071;27;20057;-79
2022/05/03 06:36:37;;;;;;;52.70;26.60;;;11.70;99.90;;;;;;5137264;27;20131;-78
2022/05/03 06:39:05;;;;;;;44.38;21.85;;;11.80;99.90;;;;;;5137678;27;20051;-78
2022/05/03 06:41:34;;;;;;;43.00;20.80;;;11.80;99.90;;;;;;5136636;27;20051;-78
2022/05/03 06:44:00;;;;;;;41.10;16.65;;;11.80;99.90;;;;;;5171829;27;20055;-78
2022/05/03 06:46:26;;;;;;;25.33;9.75;;;11.70;99.90;;;;;;5136690;27;20538;-78
2022/05/03 06:48:52;;;;;;;31.95;10.07;;;11.50;99.90;;;;;;5136632;27;20046;-78
2022/05/03 06:51:18;;;;;;;22.10;8.07;;;11.40;99.90;;;;;;5136345;27;20104;-77
2022/05/03 06:53:44;;;;;;;24.27;6.50;;;11.40;99.90;;;;;;5122856;27;20058;-79
2022/05/03 06:56:10;;;;;;;26.10;6.88;;;11.10;99.90;;;;;;5136677;27;20039;-78
2022/05/03 06:58:36;;;;;;;21.85;5.97;;;11.10;99.90;;;;;;5136860;27;20111;-78
2022/05/03 07:01:12;;;;;;;21.65;6.00;;;11.20;99.90;;;;;;5136530;27;20371;-78
2022/05/03 07:03:38;;;;;;;22.63;6.18;;;11.10;99.90;;;;;;5137061;27;20058;-75
2022/05/03 07:06:04;;;;;;;15.65;5.40;;;11.10;99.90;;;;;;5136620;27;20051;-74
2022/05/03 07:08:31;;;;;;;20.25;7.18;;;11.20;99.90;;;;;;5137356;27;20054;-75
2022/05/03 07:10:58;;;;;;;13.90;5.63;;;11.30;99.90;;;;;;5143160;27;20039;-75
2022/05/03 07:13:24;;;;;;;16.17;5.07;;;11.30;99.90;;;;;;5137422;27;20482;-75
2022/05/03 07:15:55;;;;;;;22.55;6.63;;;11.30;99.90;;;;;;5137205;27;20133;-76
2022/05/03 07:23:51;;;;;;;24.92;5.60;;;11.20;99.90;;;;;;5136511;27;20055;-75
2022/05/03 07:26:17;;;;;;;22.42;6.57;;;11.20;99.90;;;;;;5137488;27;20462;-75
2022/05/03 07:28:43;;;;;;;20.08;6.13;;;11.30;99.90;;;;;;5135607;27;20139;-74
2022/05/03 07:31:09;;;;;;;16.17;5.75;;;11.40;99.90;;;;;;5135870;27;20089;-74
2022/05/03 07:33:36;;;;;;;22.42;6.13;;;11.30;99.90;;;;;;5135978;27;20051;-73
2022/05/03 07:36:03;;;;;;;19.80;6.18;;;11.50;99.90;;;;;;5137101;27;20427;-75
2022/05/03 07:38:29;;;;;;;21.15;6.75;;;11.50;99.90;;;;;;5136826;27;20046;-72
2022/05/03 07:40:56;;;;;;;35.78;6.90;;;11.50;99.90;;;;;;5135544;27;20047;-78
2022/05/03 07:43:23;;;;;;;27.05;6.95;;;11.50;99.90;;;;;;5136572;27;20053;-77
2022/05/03 07:45:48;;;;;;;36.17;7.32;;;11.50;99.90;;;;;;5136188;27;20569;-78
2022/05/03 07:48:14;;;;;;;24.30;6.25;;;11.50;99.90;;;;;;5135777;27;20122;-78
2022/05/03 07:50:40;;;;;;;22.92;6.20;;;11.60;99.90;;;;;;5135356;27;20063;-78
2022/05/03 07:53:06;;;;;;;20.25;6.22;;;11.50;99.90;;;;;;5136947;27;20138;-78
2022/05/03 07:55:32;;;;;;;23.13;6.03;;;11.40;99.90;;;;;;5135438;27;20050;-79
2022/05/03 07:57:58;;;;;;;27.88;6.63;;;11.40;99.90;;;;;;5136669;27;20051;-78
2022/05/03 08:00:26;;;;;;;25.48;5.65;;;11.60;99.90;;;;;;5136346;27;20090;-79
2022/05/03 08:02:52;;;;;;;25.83;6.15;;;11.70;99.90;;;;;;5136554;27;20047;-74
2022/05/03 08:05:17;;;;;;;25.48;5.07;;;12.00;99.90;;;;;;5136175;27;20053;-74
2022/05/03 08:07:44;;;;;;;24.75;5.82;;;11.90;99.90;;;;;;5136254;27;20053;-75
2022/05/03 08:10:10;;;;;;;22.83;4.65;;;12.00;99.90;;;;;;5134549;27;20043;-75
2022/05/03 08:12:36;;;;;;;23.65;4.90;;;12.00;99.90;;;;;;5136209;27;20079;-76
2022/05/03 08:15:04;;;;;;;26.88;5.25;;;12.00;99.90;;;;;;5135396;27;20461;-75
2022/05/03 08:17:31;;;;;;;23.13;4.38;;;12.00;99.90;;;;;;5136130;27;20060;-76
2022/05/03 08:19:58;;;;;;;22.50;5.07;;;12.10;99.90;;;;;;5135177;27;20104;-75
2022/05/03 08:22:25;;;;;;;24.17;4.53;;;12.10;99.90;;;;;;5135796;27;20414;-76
2022/05/03 08:24:53;;;;;;;20.80;4.45;;;12.00;99.90;;;;;;5134776;27;20054;-76
2022/05/03 08:27:19;;;;;;;22.30;4.20;;;12.10;99.90;;;;;;5134602;27;20122;-75
2022/05/03 08:29:45;;;;;;;19.95;3.97;;;12.00;99.90;;;;;;5135882;27;20522;-75
2022/05/03 08:32:11;;;;;;;15.73;4.50;;;12.10;99.90;;;;;;5134800;27;20051;-74
2022/05/03 08:34:37;;;;;;;18.48;4.32;;;12.20;99.90;;;;;;5135698;27;20055;-75
2022/05/03 08:42:31;;;;;;;21.85;4.30;;;11.80;99.90;;;;;;5134669;27;20180;-78
2022/05/03 08:44:59;;;;;;;21.15;4.25;;;11.70;99.90;;;;;;5134668;27;20174;-79
2022/05/03 08:47:27;;;;;;;23.63;3.95;;;11.50;99.90;;;;;;5117510;27;20051;-77
2022/05/03 08:50:07;;;;;;;19.40;3.17;;;11.50;99.90;;;;;;5134426;27;20486;-78
2022/05/03 08:52:54;;;;;;;21.08;4.20;;;11.60;99.90;;;;;;5136022;27;20187;-77
2022/05/03 08:55:21;;;;;;;16.35;3.65;;;11.70;99.90;;;;;;5167800;27;20526;-77
2022/05/03 08:57:47;;;;;;;16.95;2.97;;;11.90;99.90;;;;;;5135208;27;20051;-77
2022/05/03 09:00:14;;;;;;;21.92;3.45;;;11.80;99.90;;;;;;5134103;27;20061;-77
2022/05/03 09:02:46;;;;;;;23.25;3.95;;;11.90;99.90;;;;;;5135310;27;20046;-77
2022/05/03 09:05:12;;;;;;;19.65;3.35;;;12.20;99.90;;;;;;5134123;27;20503;-77
2022/05/03 09:07:39;;;;;;;14.20;3.08;;;12.40;99.90;;;;;;5134368;27;20453;-75
2022/05/03 09:10:26;;;;;;;13.63;2.70;;;12.30;99.90;;;;;;5133476;27;20427;-75
2022/05/03 09:12:55;;;;;;;17.10;2.90;;;12.10;99.90;;;;;;5134213;27;20054;-77
2022/05/03 09:15:30;;;;;;;15.25;3.08;;;11.90;99.90;;;;;;5135046;27;20043;-78
2022/05/03 09:17:56;;;;;;;20.02;3.53;;;12.10;99.90;;;;;;5134867;27;20489;-78
2022/05/03 09:26:14;;;;;;;18.23;3.50;;;12.70;99.60;;;;;;5134010;27;20058;-78
2022/05/03 09:29:01;;;;;;;21.08;4.10;;;12.80;99.40;;;;;;5133955;27;20054;-77
2022/05/03 09:31:46;;;;;;;23.33;3.60;;;12.70;99.40;;;;;;5134715;27;20050;-77
2022/05/03 09:34:25;;;;;;;17.75;3.17;;;12.60;99.50;;;;;;5133741;27;20520;-77
2022/05/03 09:37:09;;;;;;;18.88;3.70;;;12.60;99.50;;;;;;5133840;27;20927;-77
2022/05/03 09:39:46;;;;;;;17.15;3.25;;;12.50;99.70;;;;;;5133592;27;20039;-77
2022/05/03 09:42:19;;;;;;;12.90;2.80;;;12.70;99.70;;;;;;5134464;27;20042;-77
2022/05/03 09:44:58;;;;;;;13.48;3.08;;;12.80;99.60;;;;;;5134410;27;20047;-77
2022/05/03 09:47:28;;;;;;;14.43;3.05;;;13.10;99.50;;;;;;5134548;27;20122;-77
2022/05/03 09:49:54;;;;;;;9.75;2.38;;;13.10;99.10;;;;;;5134341;27;20530;-76
2022/05/03 09:52:43;;;;;;;22.15;3.05;;;13.20;98.80;;;;;;5132875;27;20055;-74
2022/05/03 09:55:11;;;;;;;15.90;2.90;;;13.20;98.80;;;;;;5133182;27;20062;-77
2022/05/03 09:57:39;;;;;;;19.63;3.15;;;13.30;98.90;;;;;;5133555;28;20047;-73
2022/05/03 10:00:08;;;;;;;20.08;2.63;;;13.30;98.50;;;;;;5133341;27;20107;-77
2022/05/03 10:02:37;;;;;;;12.85;2.38;;;13.30;98.30;;;;;;5133385;28;20055;-77
2022/05/03 10:05:03;;;;;;;15.52;2.38;;;13.10;98.30;;;;;;5133210;28;20066;-76
2022/05/03 10:07:32;;;;;;;17.98;2.47;;;13.40;98.80;;;;;;5138971;27;20055;-75
2022/05/03 10:09:57;;;;;;;12.25;2.25;;;13.70;98.10;;;;;;5137087;27;20047;-75
2022/05/03 10:12:23;;;;;;;9.85;2.50;;;14.00;98.20;;;;;;5138246;27;20517;-75
2022/05/03 10:14:49;;;;;;;12.43;2.38;;;14.10;97.60;;;;;;5137777;27;20051;-75
2022/05/03 10:20:38;;;;;;;8.60;2.25;;;14.10;97.00;;;;;;5137588;27;20057;-72
2022/05/03 10:23:04;;;;;;;12.18;2.35;;;14.20;97.00;;;;;;5140081;27;20516;-76
2022/05/03 10:25:52;;;;;;;12.38;2.35;;;14.10;96.60;;;;;;5137226;27;20168;-75
2022/05/03 10:28:18;;;;;;;11.27;2.50;;;14.30;96.90;;;;;;5136266;27;20473;-75
2022/05/03 10:31:13;;;;;;;9.95;2.72;;;14.50;96.70;;;;;;5137014;27;20074;-74
2022/05/03 10:33:41;;;;;;;8.27;1.98;;;14.30;96.10;;;;;;5129739;27;20505;-74
2022/05/03 10:36:28;;;;;;;7.85;2.05;;;14.40;96.10;;;;;;5136913;27;20550;-75
2022/05/03 10:39:06;;;;;;;9.95;2.35;;;14.40;96.30;;;;;;5137063;27;20043;-78
2022/05/03 10:41:50;;;;;;;10.10;2.25;;;14.50;96.00;;;;;;5136843;27;20043;-79
2022/05/03 10:44:53;;;;;;;9.15;2.10;;;14.50;95.80;;;;;;5136819;27;20093;-79
2022/05/03 10:47:21;;;;;;;10.25;2.40;;;14.70;95.60;;;;;;5137266;27;20047;-78
2022/05/03 10:50:12;;;;;;;6.93;1.67;;;14.80;95.50;;;;;;5136768;27;20402;-78
2022/05/03 10:52:39;;;;;;;12.70;2.78;;;15.10;95.50;;;;;;5136710;27;20058;-77
2022/05/03 10:55:09;;;;;;;14.30;2.08;;;14.90;95.60;;;;;;5136597;27;20054;-76
2022/05/03 10:58:12;;;;;;;13.18;2.15;;;14.90;95.90;;;;;;5136877;27;20088;-76
2022/05/03 11:01:19;;;;;;;6.38;1.50;;;15.10;95.70;;;;;;5136577;27;20051;-76
2022/05/03 11:03:48;;;;;;;7.35;2.30;;;14.70;95.40;;;;;;5136587;27;20072;-77
2022/05/03 11:06:20;;;;;;;6.82;1.85;;;14.80;95.40;;;;;;5136640;27;20051;-76
2022/05/03 11:08:58;;;;;;;9.15;1.65;;;14.80;95.40;;;;;;5136513;27;20058;-77
2022/05/03 11:11:39;;;;;;;7.75;2.03;;;15.00;95.50;;;;;;5135947;27;20108;-77
2022/05/03 11:14:05;;;;;;;8.80;1.88;;;15.50;95.40;;;;;;5136516;27;20083;-76
2022/05/03 11:16:37;;;;;;;8.35;1.60;;;15.60;95.30;;;;;;5136525;27;20043;-77
2022/05/03 11:19:13;;;;;;;8.68;1.80;;;15.40;94.80;;;;;;5136679;27;20103;-76
2022/05/03 11:21:40;;;;;;;7.32;1.67;;;15.40;95.00;;;;;;5136424;27;20446;-76
2022/05/03 11:24:21;;;;;;;9.25;1.45;;;15.40;94.80;;;;;;5136392;27;20107;-76
2022/05/03 11:26:48;;;;;;;7.68;1.90;;;15.20;94.80;;;;;;5136206;27;20481;-76
2022/05/03 11:29:14;;;;;;;9.00;1.60;;;15.00;94.70;;;;;;5136162;27;20055;-76
2022/05/03 11:31:49;;;;;;;8.18;1.58;;;15.00;94.70;;;;;;5135942;27;20496;-76
2022/05/03 11:34:17;;;;;;;11.25;2.97;;;15.20;94.30;;;;;;5136879;27;20043;-72
2022/05/03 11:36:46;;;;;;;11.43;1.70;;;15.10;94.60;;;;;;5135894;27;20431;-82
2022/05/03 11:39:13;;;;;;;11.88;2.10;;;14.80;94.70;;;;;;5136424;27;20047;-82
2022/05/03 11:41:39;;;;;;;9.23;1.80;;;14.80;95.10;;;;;;5136596;27;20047;-74
2022/05/03 11:44:05;;;;;;;8.20;1.85;;;15.30;94.80;;;;;;5136955;27;20047;-78
2022/05/03 11:46:31;;;;;;;9.80;1.70;;;15.30;94.50;;;;;;5136010;27;20085;-74
2022/05/03 11:49:02;;;;;;;9.02;1.83;;;15.10;94.50;;;;;;5136722;27;20510;-84
2022/05/03 11:57:22;;;;;;;10.38;1.42;;;15.40;94.40;;;;;;5135522;27;20063;-81
2022/05/03 11:59:49;;;;;;;7.32;2.00;;;15.30;94.80;;;;;;5135238;27;20051;-80
2022/05/03 12:02:18;;;;;;;5.22;1.35;;;15.50;94.00;;;;;;5135230;27;20481;-81
2022/05/03 12:05:00;;;;;;;7.82;1.38;;;15.50;94.30;;;;;;5136519;27;20138;-80
2022/05/03 12:07:25;;;;;;;4.85;1.52;;;15.90;94.50;;;;;;5135707;27;20070;-81
2022/05/03 12:09:51;;;;;;;10.40;1.80;;;16.20;94.20;;;;;;5134401;27;20491;-79
2022/05/03 12:15:24;;;;;;;11.27;1.67;;;16.10;93.80;;;;;;5136182;27;20118;-84
2022/05/03 12:18:11;;;;;;;7.88;1.50;;;16.90;93.80;;;;;;5135069;27;20466;-77
2022/05/03 12:20:55;;;;;;;11.88;1.90;;;16.90;93.80;;;;;;5135103;27;20397;-87
2022/05/03 12:23:36;;;;;;;7.25;1.52;;;16.10;94.00;;;;;;5118924;27;20058;-94
2022/05/03 12:26:17;;;;;;;14.80;1.85;;;15.70;94.20;;;;;;5136219;27;20039;-92
2022/05/03 12:28:45;;;;;;;6.78;1.67;;;15.70;94.20;;;;;;5118042;28;20054;-93
2022/05/03 12:31:12;;;;;;;7.32;2.13;;;15.90;94.30;;;;;;5135201;27;20043;-90
2022/05/03 12:33:49;;;;;;;5.90;1.77;;;16.30;94.30;;;;;;5136036;27;20096;-72
2022/05/03 12:36:41;;;;;;;7.50;1.42;;;16.10;93.70;;;;;;5134738;27;20522;-73
2022/05/03 12:39:18;;;;;;;8.77;1.67;;;15.70;93.50;;;;;;5134787;27;20474;-73
2022/05/03 12:41:52;;;;;;;8.27;1.50;;;15.60;93.70;;;;;;5135452;27;20439;-71
2022/05/03 12:44:19;;;;;;;9.10;1.55;;;16.00;93.60;;;;;;5117859;27;20122;-70
2022/05/03 12:46:44;;;;;;;10.63;2.22;;;16.00;93.70;;;;;;5114468;28;20099;-72
2022/05/03 12:49:13;;;;;;;8.10;1.70;;;16.40;93.70;;;;;;5114835;28;20048;-74
2022/05/03 12:51:47;;;;;;;8.82;1.45;;;16.90;93.60;;;;;;5113451;28;20052;-75
2022/05/03 12:54:13;;;;;;;8.27;1.33;;;16.80;93.50;;;;;;5114710;28;20051;-75
2022/05/03 12:59:25;;;;;;;6.40;1.50;;;17.00;93.10;;;;;;5114026;28;20051;-75
2022/05/03 13:01:55;;;;;;;7.35;1.73;;;17.20;93.30;;;;;;5113634;28;20479;-75
2022/05/03 13:04:21;;;;;;;7.78;1.50;;;17.40;93.10;;;;;;5113505;28;20052;-75
2022/05/03 13:06:48;;;;;;;12.98;2.00;;;17.10;93.50;;;;;;5114759;28;20051;-76
2022/05/03 13:09:14;;;;;;;4.70;1.42;;;17.10;92.90;;;;;;5113730;28;20113;-76
2022/05/03 13:11:41;;;;;;;10.90;1.67;;;17.10;93.30;;;;;;5096171;28;20449;-75
2022/05/03 13:14:08;;;;;;;7.97;1.85;;;17.60;93.50;;;;;;5114573;28;20560;-76
2022/05/03 13:16:33;;;;;;;8.15;1.95;;;18.20;93.10;;;;;;5113483;28;20054;-76
2022/05/03 13:18:59;;;;;;;6.10;1.35;;;18.50;93.20;;;;;;5113082;28;20047;-76
2022/05/03 13:21:25;;;;;;;6.03;1.77;;;18.50;93.00;;;;;;5113628;28;20051;-76
2022/05/03 13:23:51;;;;;;;10.00;2.00;;;18.70;93.40;;;;;;5114554;28;20482;-76
2022/05/03 13:26:16;;;;;;;9.90;1.50;;;19.20;92.80;;;;;;5113463;28;20122;-76
2022/05/03 13:28:42;;;;;;;8.00;1.50;;;19.40;93.10;;;;;;5114149;28;20043;-76
2022/05/03 13:31:08;;;;;;;9.70;2.00;;;19.40;92.40;;;;;;5114169;28;20047;-75
2022/05/03 13:33:34;;;;;;;9.77;2.05;;;18.90;92.60;;;;;;5113962;28;20051;-76
2022/05/03 13:41:27;;;;;;;9.70;1.80;;;18.90;92.30;;;;;;5112280;28;20551;-75
2022/05/03 13:43:53;;;;;;;9.35;1.80;;;18.50;92.20;;;;;;5114156;28;20051;-76
2022/05/03 13:46:19;;;;;;;6.00;1.75;;;18.40;92.50;;;;;;5114251;28;20126;-75
2022/05/03 13:48:46;;;;;;;6.70;1.70;;;18.30;92.20;;;;;;5114374;28;20482;-76
2022/05/03 13:51:12;;;;;;;9.95;2.25;;;18.20;92.40;;;;;;5114455;28;20142;-75